Aérodrome :
LOGIN :

S'inscrire | Disclaimer

   EN    FR    IT 

 










Légende :    VFR   VFR Marginal   IFR   IFR Intensif   IFR Très Intensif
Visi : 
Plafond : 
>= 8 km
>= 3000ft
5 à 8 km
1000 à 3000 ft
1500m à 5 km
500 à 1000 ft
800 à 1500m
200 à 500 ft
< 800m
< 200 ft
Symboles :   Orages  Brouillard  Fortes neiges  Fortes précipitations  Vent > 20 kt
SIGMETs :   Divers  Orages  Givrage  Turbulence  Onde Orograph.  Cendres Volcan.







- Altitude de l'aérodrome : 1 ft
- Voir les cartes d'approche


EGCK - Caernarfon

DERNIER METAR :
  • 250920Z 36005KT 340V040 9999 BKN024 09/04 Q1035

METARs EXPIRÉS :
  • 250850Z AUTO 36005KT 340V040 9999 FEW028/// 09/04 Q1035
  • 250820Z AUTO VRB03KT 9999 NCD 08/03 Q1035
  • 250750Z AUTO 03004KT 350V070 9999 FEW023/// BKN045/// 07/03 Q1034
  • 250720Z AUTO 05004KT 020V080 9999 BKN029/// BKN044/// 06/03 Q1034
  • 250650Z AUTO VRB03KT 9999 SCT024/// SCT035/// BKN044/// 06/03 Q1034

TAF TAF EGCK
Valide du 25 à 09h jusqu'au 25 à 18h UTC


250809Z 2509/2518 VRB03KT 9999 SCT035
BECMG 2509/2512 33010KT
Pas de NOTAMs connus pour ce terrain.
1 SIGMET publié pour la FIR London (EGTT) :
 
Turbulence forte
EGTT SIGMET 02 VALID 250600/251000 EGRR
EGTT LONDON FIR SEV TURB FCST NE OF LINE N5500 E00153 - N5309 E00324 SFC/FL060 STNR WKN=



MET'MAP, la Météo Aéronautique d'un coup d'oeil ! - Copyright ORBIFLY Décembre 2007 - Disclaimer

ORBIFLY MET'MAP TEAM :

Programmation & Développement : Alexandra Zaïnal
Conception & Développement : Baudouin d'Aumeries
Co-Programmation & Développement : Marc-Olivier Méhu
Soutien technique & logistique : Manuel Goepfert

Contact : metmap@orbifly.com




SOURCES & CREDITS :

   NOAA